Tuesday, October 16, 2018, 6:39 AM EDT
Back to Local

KSMQ, Somerville Somerset Airport

Location: Bedminster, NJ, United States Lat: 40.617
Local Time: 6:39 AM EDT (10:39 GMT) Lon: -74.667
Time Zone: US/Eastern Elev: 104 ft

Show me the last for .
Show Decoded

2018-10-16 05:53 METAR KSMQ 160953Z AUTO 35009KT 10SM CLR 10/04 A3011 RMK AO2 SLP197 T01000039 =
2018-10-16 04:53 METAR KSMQ 160853Z AUTO 32010G20KT 10SM CLR 12/04 A3007 RMK AO2 SLP183 T01170039
                 53029 =
2018-10-16 03:53 METAR KSMQ 160753Z AUTO 30009KT 260V330 10SM CLR 12/04 A3002 RMK AO2 SLP167
                 T01220044 =
2018-10-16 02:53 METAR KSMQ 160653Z AUTO 30007KT 270V330 10SM CLR 13/08 A3001 RMK AO2 SLP162
                 T01280078 =
2018-10-16 01:53 METAR KSMQ 160553Z AUTO VRB05KT 10SM OVC095 14/09 A2998 RMK AO2 RAE16 SLP154
                 P0000 60008 T01390094 10194 20139 51032 =
2018-10-16 00:53 METAR KSMQ 160453Z AUTO VRB06KT 10SM -RA OVC065 14/13 A2996 RMK AO2 SLP144 P0003
                 T01390128 401940100 =
2018-10-15 23:53 METAR KSMQ 160353Z AUTO 30010G22KT 260V320 7SM -RA FEW021 BKN055 OVC080 16/13
                 A2993 RMK AO2 RAB02 SLP134 P0005 T01560133 =
2018-10-15 23:08 METAR KSMQ 160308Z AUTO 30010G22KT 270V330 3SM RA BR SCT019 BKN030 OVC036 18/16
                 A2991 RMK AO2 RAB02 PRESRR P0003 T01780156 =
2018-10-15 22:53 METAR KSMQ 160253Z AUTO VRB06KT 10SM SCT021 OVC028 19/17 A2989 RMK AO2 RAB30E47
                 SLP120 P0000 60000 T01890172 53009 =
2018-10-15 22:22 METAR KSMQ 160222Z AUTO VRB03KT 10SM BKN023 BKN029 OVC050 19/17 A2988 RMK AO2
                 T01940172 =
2018-10-15 21:53 METAR KSMQ 160153Z AUTO VRB04KT 10SM OVC060 19/17 A2986 RMK AO2 SLP111 T01940172
                 =
2018-10-15 20:53 METAR KSMQ 160053Z AUTO VRB05KT 10SM BKN060 BKN075 19/17 A2986 RMK AO2 SLP113
                 T01890172 =
2018-10-15 19:53 METAR KSMQ 152353Z AUTO 20005KT 9SM FEW050 SCT090 BKN110 19/17 A2986 RMK AO2
                 SLP112 60000 T01890172 10189 20172 58012 =
2018-10-15 19:14 METAR KSMQ 152314Z AUTO 20004KT 9SM SCT015 OVC050 18/17 A2988 RMK AO2 T01780167
                 =
2018-10-15 18:53 METAR KSMQ 152253Z AUTO 19004KT 9SM BKN015 OVC049 18/17 A2988 RMK AO2 SLP119
                 T01780167 =
2018-10-15 18:40 METAR KSMQ 152240Z AUTO 00000KT 9SM OVC015 18/17 A2988 RMK AO2 T01780167 =
2018-10-15 17:53 METAR KSMQ 152153Z AUTO 00000KT 7SM OVC013 18/17 A2988 RMK AO2 RAB2057E07 SLP120
                 P0000 T01780167 =
2018-10-15 17:10 METAR KSMQ 152110Z AUTO 00000KT 8SM OVC014 18/17 A2990 RMK AO2 RAB2057E07 P0000
                 T01780167 =
2018-10-15 16:53 METAR KSMQ 152053Z AUTO 18003KT 7SM BKN015 OVC120 18/17 A2990 RMK AO2 RAB04E43
                 SLP124 P0000 60000 T01780167 58024 =
2018-10-15 16:43 METAR KSMQ 152043Z AUTO 17004KT 8SM BKN015 OVC110 18/17 A2990 RMK AO2 RAB04E43
                 P0000 T01780167 =
2018-10-15 15:53 METAR KSMQ 151953Z AUTO VRB03KT 8SM OVC013 18/16 A2994 RMK AO2 SLP138 T01780161
                 =
2018-10-15 14:53 METAR KSMQ 151853Z AUTO VRB04KT 8SM OVC012 17/16 A2995 RMK AO2 SLP142 T01720161
                 =
2018-10-15 13:53 METAR KSMQ 151753Z AUTO 19003KT 8SM OVC011 17/16 A2997 RMK AO2 SLP148 60001
                 T01720156 10172 20111 56034 =
2018-10-15 12:53 METAR KSMQ 151653Z AUTO 18006KT 9SM OVC010 16/16 A2999 RMK AO2 SLP156 T01610156
                 =
2018-10-15 11:53 METAR KSMQ 151553Z AUTO 7SM OVC011 15/14 A3003 RMK AO2 SLP169 T01500144 =
2018-10-15 10:53 METAR KSMQ 151453Z AUTO 00000KT 7SM OVC011 14/13 A3007 RMK AO2 SLP182 60001
                 T01390133 58015 $ =
2018-10-15 10:27 METAR KSMQ 151427Z AUTO 00000KT 6SM BR OVC013 13/13 A3007 RMK AO2 T01330128 $ =
2018-10-15 09:53 METAR KSMQ 151353Z AUTO 00000KT 5SM BR BKN017 OVC021 12/12 A3008 RMK AO2
                 RAB01E35 SLP188 P0001 T01220122 $ =
2018-10-15 09:38 METAR KSMQ 151338Z AUTO 4SM BR OVC021 12/12 A3009 RMK AO2 RAB01E35 P0001
                 T01220117 $ =
2018-10-15 09:26 METAR KSMQ 151326Z AUTO 00000KT 2SM -RA BR OVC023 12/12 A3009 RMK AO2 RAB01
                 P0000 T01170117 $ =
2018-10-15 08:53 METAR KSMQ 151253Z AUTO 00000KT 4SM BR OVC026 12/11 A3010 RMK AO2 SLP192
                 T01170111 $ =
2018-10-15 08:21 METAR KSMQ 151221Z AUTO 00000KT 4SM BR FEW011 BKN029 OVC035 11/11 A3011 RMK AO2
                 T01110111 $ =
2018-10-15 07:53 METAR KSMQ 151153Z AUTO 00000KT 6SM BR OVC034 11/11 A3011 RMK AO2 SLP197 60002
                 70002 T01110106 10111 20100 58010 $ =
2018-10-15 07:08 METAR KSMQ 151108Z AUTO 00000KT 6SM BR OVC031 11/11 A3012 RMK AO2 T01110106 $ =
2018-10-15 06:53 METAR KSMQ 151053Z AUTO 00000KT 7SM FEW022 OVC029 11/11 A3012 RMK AO2 RAB21E32
                 SLP199 P0000 T01110106 $ =

Support USWX by starting your Amazon purchase here.